Aviation Digital Data Service (ADDS)

Output produced by METARs form (1133 UTC 25 June 2019)
found at http://www.aviationweather.gov/metar/data/
 
Forecast for: ZBTJ (TIANJIN/ZHANGGUI, CN)
Text: TAF ZBTJ 250900Z 2512/2612 16005MPS 5000 HZ NSC TX31/2607Z TN22/2520Z
Forecast period: 1200 UTC 25 June 2019 to 1200 UTC 26 June 2019
Forecast type: FROM: standard forecast or significant change
Winds: from the SSE (160 degrees) at 12 MPH (10 knots; 5.1 m/s)
Visibility: 3 miles (5 km)
Ceiling: unknown
Clouds: missing
Weather: HZ  (haze)